Whitney, Canada
Current Conditions -  °F | °C
As of 7:00 AM on Thursday 23 Oct 2014 (Local Time) from CYWA Reporting Station
Clear Clear  
Wind Chill: 30°   Ceiling: Unl
Heat Index: 36°   Visibility: 9mi
Dew Point: 30°   Wind: 7mph
Humidity: 81%   Direction: 300°WNW
Pressure: 30.18"   Gusts: NA
Location:  45.5°N, 78.23°W
Report Text: CYWA 231100Z AUTO 30006KT 9SM CLR 02/M01 A3018 RMK SLP226
Loading
Personal Weather Stations






























Interactive Weather Map
Tropical Storm Tracking
New forecast layout! Learn more

10-Day Weather Forecast

Advertisements
Track Severe Weather on mobile